FYWH Airport Information

Runway Information
Runway 08 Length 15010 ft width 148 ft
Elevation 5640 ft Threshold 0 ft Heading 64
Runway 26 Length 15010 ft Width 148 ft
Elevation 5500 ft Threshold 0 ft Heading 244
Runway 16 Length 5000 ft width 98 ft
Elevation 5574 ft Threshold 0 ft Heading 141
Runway 34 Length 5000 ft Width 98 ft
Elevation 5564 ft Threshold 0 ft Heading 321
Airport Frequencies
Type APP Name WINDHOEK A Frequency 120.5 MHZ
Type ATIS Name ATIS Frequency 114.1 MHZ
Type GTE Name APRON Frequency 121.9 MHZ
Type TWR Name WINDHOEK T Frequency 118.1 MHZ
Airport Navaids
Type NDB Name Windhoek Frequency 280 KHZ
Type VOR-DME Name Windhoek Frequency 114500 KHZ
Airport Weather Information & NOTAM
ADDS - METARS form results

(0141 UTC 28 November 2021)
Data provider http://aviationweather.gov/metar/data/
 
Forecast for: FYWH (J. G. STRIJDOM , NA)
Text: TAF FYWH 272200Z 2800/2900 28011KT CAVOK
Forecast period: 0000 UTC 28 November 2021 to 0000 UTC 29 November 2021
Forecast type: FROM: standard forecast or significant change
Winds: from the W (280 degrees) at 13 MPH (11 knots; 5.7 m/s)
Visibility: 6 or more miles (10+ km)
Ceiling: unknown
Clouds: missing
Weather: NSW  (no significant weather)